Time;durP1;ratioP1;P1;durP2;ratioP2;P2;SDS_P1;SDS_P2;PMS_P1;PMS_P2;Temp;Humidity;BMP_temperature;BMP_pressure;BME280_temperature;BME280_humidity;BME280_pressure;Samples;Min_cycle;Max_cycle;Signal;HPM_P1;HPM_P2
2023/05/18 00:00:10;;;;;;;7.57;6.30;;;11.40;99.40;;;;;;5072134;28;20634;-75
2023/05/18 00:02:36;;;;;;;6.70;6.20;;;11.30;99.30;;;;;;5072425;28;20404;-74
2023/05/18 00:05:03;;;;;;;8.03;6.70;;;11.30;99.50;;;;;;5073141;28;20400;-75
2023/05/18 00:07:32;;;;;;;11.57;6.57;;;11.20;99.50;;;;;;5070857;28;20589;-74
2023/05/18 00:10:00;;;;;;;7.33;6.60;;;11.20;99.90;;;;;;5072898;28;20891;-74
2023/05/18 00:12:26;;;;;;;7.90;7.20;;;11.20;99.90;;;;;;5072375;28;20453;-74
2023/05/18 00:14:51;;;;;;;8.10;7.40;;;11.20;99.90;;;;;;5069687;28;20502;-75
2023/05/18 00:17:19;;;;;;;10.63;7.40;;;11.10;99.90;;;;;;5072867;28;20176;-74
2023/05/18 00:19:45;;;;;;;10.20;7.27;;;11.10;99.90;;;;;;5062461;28;20205;-75
2023/05/18 00:22:16;;;;;;;7.60;6.80;;;11.10;99.90;;;;;;5053017;28;20409;-75
2023/05/18 00:24:46;;;;;;;9.13;7.27;;;11.00;99.90;;;;;;5052533;28;20473;-74
2023/05/18 00:27:11;;;;;;;8.23;7.53;;;11.00;99.90;;;;;;5052652;28;20413;-75
2023/05/18 00:29:37;;;;;;;8.53;7.00;;;11.00;99.90;;;;;;5051885;28;20413;-74
2023/05/18 00:32:03;;;;;;;9.77;8.00;;;11.00;99.90;;;;;;5071130;28;20180;-75
2023/05/18 00:34:30;;;;;;;7.27;6.57;;;11.00;99.90;;;;;;5071830;28;20521;-75
2023/05/18 00:36:56;;;;;;;8.50;7.70;;;10.90;99.90;;;;;;5069301;28;20922;-75
2023/05/18 00:39:22;;;;;;;10.23;7.30;;;10.90;99.90;;;;;;5062269;28;21021;-75
2023/05/18 00:41:48;;;;;;;8.00;7.27;;;10.90;99.90;;;;;;5051424;28;20413;-75
2023/05/18 00:44:14;;;;;;;8.13;7.43;;;10.90;99.90;;;;;;5068693;28;20188;-76
2023/05/18 00:46:42;;;;;;;7.40;6.80;;;10.80;99.90;;;;;;5071002;28;20268;-74
2023/05/18 00:49:09;;;;;;;12.33;6.87;;;10.80;99.90;;;;;;5068613;28;20432;-75
2023/05/18 00:51:35;;;;;;;7.87;7.17;;;10.80;99.90;;;;;;5064970;28;20459;-74
2023/05/18 00:54:02;;;;;;;10.00;7.60;;;10.80;99.90;;;;;;5052291;28;20447;-75
2023/05/18 00:56:32;;;;;;;8.50;7.70;;;10.80;99.90;;;;;;5050891;28;20435;-74
2023/05/18 00:59:00;;;;;;;9.57;7.40;;;10.80;99.90;;;;;;5052216;28;20440;-75
2023/05/18 01:01:35;;;;;;;15.40;7.77;;;10.70;99.90;;;;;;5052086;28;20407;-73
2023/05/18 01:04:02;;;;;;;9.50;7.27;;;10.70;99.90;;;;;;5051558;28;20458;-75
2023/05/18 01:06:34;;;;;;;7.90;7.10;;;10.80;99.90;;;;;;5051588;28;20412;-74
2023/05/18 01:09:03;;;;;;;7.80;7.00;;;10.70;99.90;;;;;;5052109;28;20757;-76
2023/05/18 01:12:04;;;;;;;7.33;6.63;;;10.70;99.90;;;;;;5051549;28;20779;-74
2023/05/18 01:14:36;;;;;;;8.07;7.13;;;10.60;99.90;;;;;;4947617;28;20420;-74
2023/05/18 01:17:11;;;;;;;8.07;7.27;;;10.60;99.90;;;;;;5048393;28;20760;-76
2023/05/18 01:20:11;;;;;;;7.80;7.00;;;10.60;99.90;;;;;;5014206;28;20475;-75
2023/05/18 01:22:56;;;;;;;8.80;7.57;;;10.60;99.90;;;;;;5031409;28;20489;-75
2023/05/18 01:25:39;;;;;;;8.83;6.23;;;10.60;99.90;;;;;;5031486;28;20875;-75
2023/05/18 01:28:11;;;;;;;8.60;7.30;;;10.60;99.90;;;;;;5051988;28;20403;-75
2023/05/18 01:30:40;;;;;;;7.80;7.00;;;10.60;99.90;;;;;;5047873;28;20481;-75
2023/05/18 01:33:10;;;;;;;10.43;7.67;;;10.50;99.90;;;;;;5051892;28;20404;-75
2023/05/18 01:35:36;;;;;;;8.27;7.47;;;10.50;99.90;;;;;;5051178;28;20422;-74
2023/05/18 01:38:03;;;;;;;7.80;6.37;;;10.50;99.90;;;;;;5050729;28;20493;-74
2023/05/18 01:40:36;;;;;;;7.70;6.63;;;10.50;99.90;;;;;;5051587;28;20398;-73
2023/05/18 01:43:10;;;;;;;9.33;7.17;;;10.40;99.90;;;;;;5051833;28;20400;-74
2023/05/18 01:45:38;;;;;;;6.90;6.20;;;10.50;99.90;;;;;;5048638;28;20436;-73
2023/05/18 01:48:08;;;;;;;8.10;6.57;;;10.40;99.90;;;;;;5051795;28;20861;-74
2023/05/18 01:50:38;;;;;;;10.47;7.30;;;10.40;99.90;;;;;;5033062;28;20427;-73
2023/05/18 01:53:17;;;;;;;7.40;6.70;;;10.30;99.90;;;;;;5031688;28;20535;-74
2023/05/18 01:55:45;;;;;;;7.40;6.70;;;10.30;99.90;;;;;;5031060;28;20455;-74
2023/05/18 01:58:12;;;;;;;6.70;6.10;;;10.30;99.90;;;;;;5033101;28;20969;-74
2023/05/18 02:00:38;;;;;;;9.77;7.10;;;10.20;99.90;;;;;;5048415;28;20511;-74
2023/05/18 02:03:04;;;;;;;7.47;6.50;;;10.20;99.90;;;;;;5036027;28;20431;-74
2023/05/18 02:05:30;;;;;;;8.50;7.30;;;10.20;99.90;;;;;;5037356;28;20758;-74
2023/05/18 02:07:56;;;;;;;7.00;6.30;;;10.20;99.90;;;;;;5054892;28;20503;-75
2023/05/18 02:10:22;;;;;;;8.00;7.20;;;10.20;99.90;;;;;;5055303;28;20234;-75
2023/05/18 02:12:51;;;;;;;7.13;6.50;;;10.20;99.90;;;;;;5051100;28;20408;-75
2023/05/18 02:15:17;;;;;;;8.07;7.30;;;10.20;99.90;;;;;;5054362;28;20169;-74
2023/05/18 02:17:43;;;;;;;8.50;6.27;;;10.10;99.90;;;;;;5053763;28;20419;-74
2023/05/18 02:20:09;;;;;;;7.60;6.77;;;10.10;99.90;;;;;;5040704;28;20434;-75
2023/05/18 02:22:36;;;;;;;7.27;6.73;;;10.10;99.90;;;;;;5034238;28;20420;-74
2023/05/18 02:25:03;;;;;;;8.00;7.20;;;10.10;99.90;;;;;;5034769;28;20405;-74
2023/05/18 02:27:30;;;;;;;9.93;7.03;;;10.10;99.90;;;;;;5034982;28;20417;-75
2023/05/18 02:29:56;;;;;;;8.13;6.60;;;10.10;99.90;;;;;;5034412;28;20404;-75
2023/05/18 02:32:22;;;;;;;7.60;6.80;;;10.00;99.90;;;;;;5041041;28;20844;-75
2023/05/18 02:34:52;;;;;;;7.40;6.70;;;10.00;99.90;;;;;;5053991;28;20405;-75
2023/05/18 02:37:18;;;;;;;7.57;6.33;;;10.00;99.90;;;;;;5054848;28;20435;-75
2023/05/18 02:39:44;;;;;;;8.10;7.00;;;10.00;99.90;;;;;;5052510;28;20470;-74
2023/05/18 02:42:10;;;;;;;6.70;6.13;;;10.00;99.90;;;;;;5036667;28;20408;-75
2023/05/18 02:44:35;;;;;;;9.83;7.40;;;9.90;99.90;;;;;;5053911;28;20498;-74
2023/05/18 02:47:01;;;;;;;14.27;8.00;;;9.90;99.90;;;;;;5054590;28;20179;-75
2023/05/18 02:49:27;;;;;;;10.33;8.43;;;9.90;99.90;;;;;;5053433;28;20194;-75
2023/05/18 02:51:52;;;;;;;9.10;6.50;;;9.90;99.90;;;;;;5052788;28;20296;-75
2023/05/18 02:54:18;;;;;;;7.43;6.60;;;9.80;99.90;;;;;;5054211;28;20404;-75
2023/05/18 02:56:44;;;;;;;7.83;6.90;;;9.80;99.90;;;;;;5035786;28;20510;-74
2023/05/18 02:59:10;;;;;;;8.67;7.87;;;9.70;99.90;;;;;;5054033;28;20236;-74
2023/05/18 03:01:36;;;;;;;7.87;7.13;;;9.70;99.90;;;;;;5053800;28;20166;-74
2023/05/18 03:04:02;;;;;;;8.70;7.30;;;9.70;99.90;;;;;;5054244;28;20407;-75
2023/05/18 03:06:29;;;;;;;7.70;6.90;;;9.70;99.90;;;;;;5043416;28;20433;-75
2023/05/18 03:08:55;;;;;;;9.20;7.80;;;9.70;99.90;;;;;;5033069;28;20403;-74
2023/05/18 03:11:25;;;;;;;7.20;6.60;;;9.60;99.90;;;;;;5033971;28;20466;-75
2023/05/18 03:13:50;;;;;;;7.83;6.57;;;9.60;99.90;;;;;;5033388;28;20455;-74
2023/05/18 03:16:17;;;;;;;6.70;6.07;;;9.60;99.90;;;;;;5033941;28;20399;-74
2023/05/18 03:18:43;;;;;;;6.83;6.20;;;9.60;99.90;;;;;;5033557;28;20212;-74
2023/05/18 03:21:12;;;;;;;9.13;7.00;;;9.60;99.90;;;;;;5034087;28;20969;-74
2023/05/18 03:23:38;;;;;;;11.27;6.80;;;9.60;99.90;;;;;;5033189;28;20854;-74
2023/05/18 03:26:09;;;;;;;10.77;7.10;;;9.60;99.90;;;;;;5041849;28;20516;-74
2023/05/18 03:28:36;;;;;;;7.27;6.20;;;9.50;99.90;;;;;;5053633;28;20387;-74
2023/05/18 03:31:02;;;;;;;7.53;6.07;;;9.50;99.90;;;;;;5053446;28;20441;-75
2023/05/18 03:33:27;;;;;;;7.33;6.63;;;9.50;99.90;;;;;;5051936;28;20426;-75
2023/05/18 03:35:53;;;;;;;7.13;6.43;;;9.50;99.90;;;;;;5052505;28;20411;-75
2023/05/18 03:38:19;;;;;;;7.83;6.47;;;9.40;99.90;;;;;;5034906;28;20218;-74
2023/05/18 03:40:45;;;;;;;7.33;6.00;;;9.40;99.90;;;;;;5034896;28;20185;-74
2023/05/18 03:43:10;;;;;;;7.83;5.80;;;9.40;99.90;;;;;;5053555;28;20174;-74
2023/05/18 03:45:36;;;;;;;7.20;6.27;;;9.30;99.90;;;;;;5053260;28;20175;-74
2023/05/18 03:48:02;;;;;;;7.40;6.80;;;9.30;99.90;;;;;;5053044;28;20257;-75
2023/05/18 03:50:28;;;;;;;11.53;6.33;;;9.30;99.90;;;;;;5034589;28;20191;-75
2023/05/18 03:52:54;;;;;;;7.30;6.60;;;9.30;99.90;;;;;;5032802;28;20581;-74
2023/05/18 03:55:20;;;;;;;7.77;7.13;;;9.30;99.90;;;;;;5033386;28;20415;-74
2023/05/18 03:57:47;;;;;;;17.27;11.80;;;9.00;99.90;;;;;;5052376;28;20404;-74
2023/05/18 04:00:14;;;;;;;9.43;7.43;;;8.70;99.90;;;;;;5053180;28;20397;-74
2023/05/18 04:02:40;;;;;;;12.30;9.87;;;8.50;99.90;;;;;;5052470;28;20407;-73
2023/05/18 04:05:07;;;;;;;9.03;7.13;;;8.50;99.90;;;;;;5034442;28;20896;-74
2023/05/18 04:07:32;;;;;;;7.90;6.73;;;8.50;99.90;;;;;;5047755;28;20212;-74
2023/05/18 04:09:58;;;;;;;11.47;9.07;;;8.50;99.90;;;;;;5043060;28;20418;-75
2023/05/18 04:12:24;;;;;;;7.70;6.90;;;8.60;99.90;;;;;;5033324;28;20175;-75
2023/05/18 04:14:50;;;;;;;8.17;7.27;;;8.70;99.90;;;;;;5032172;28;20186;-74
2023/05/18 04:17:16;;;;;;;7.77;6.87;;;8.80;99.90;;;;;;5040886;28;20427;-74
2023/05/18 04:19:42;;;;;;;9.27;7.90;;;8.80;99.90;;;;;;5039753;28;20221;-74
2023/05/18 04:22:08;;;;;;;7.87;6.93;;;8.90;99.90;;;;;;5013974;28;20916;-74
2023/05/18 04:24:35;;;;;;;7.90;7.17;;;9.00;99.90;;;;;;5015016;28;20401;-74
2023/05/18 04:27:01;;;;;;;11.80;7.30;;;9.10;99.90;;;;;;5049025;28;21112;-75
2023/05/18 04:29:28;;;;;;;9.23;8.00;;;9.10;99.90;;;;;;5051654;28;20438;-74
2023/05/18 04:31:59;;;;;;;8.57;7.77;;;9.10;99.90;;;;;;5051800;28;20904;-74
2023/05/18 04:34:30;;;;;;;7.07;6.33;;;9.10;99.90;;;;;;5040849;28;20502;-75
2023/05/18 04:36:59;;;;;;;8.83;6.90;;;9.20;99.90;;;;;;5031863;28;20417;-74
2023/05/18 04:39:26;;;;;;;9.33;6.50;;;9.20;99.90;;;;;;5032549;28;20453;-74
2023/05/18 04:42:03;;;;;;;9.97;7.50;;;9.20;99.90;;;;;;5043791;28;20422;-74
2023/05/18 04:44:31;;;;;;;8.33;7.50;;;9.10;99.90;;;;;;5052860;28;20410;-75
2023/05/18 04:46:56;;;;;;;8.90;7.63;;;9.10;99.90;;;;;;5031925;28;20848;-75
2023/05/18 04:49:22;;;;;;;11.00;6.93;;;9.10;99.90;;;;;;5043087;28;20429;-75
2023/05/18 04:51:49;;;;;;;10.83;8.17;;;9.10;99.90;;;;;;5031749;28;20308;-74
2023/05/18 04:54:15;;;;;;;7.67;6.33;;;9.10;99.90;;;;;;5032419;28;20186;-75
2023/05/18 04:56:41;;;;;;;8.20;7.40;;;9.10;99.90;;;;;;5032079;28;20413;-74
2023/05/18 04:59:10;;;;;;;8.53;7.53;;;9.10;99.90;;;;;;5031726;28;20511;-75
2023/05/18 05:01:36;;;;;;;12.00;8.10;;;9.20;99.90;;;;;;5038601;28;20432;-75
2023/05/18 05:04:02;;;;;;;9.10;7.83;;;9.20;99.90;;;;;;5051416;28;20492;-75
2023/05/18 05:06:28;;;;;;;10.57;8.27;;;9.20;99.90;;;;;;5050626;28;20228;-75
2023/05/18 05:08:54;;;;;;;9.30;7.67;;;9.20;99.90;;;;;;5051318;28;20418;-75
2023/05/18 05:11:20;;;;;;;9.20;7.73;;;9.30;99.90;;;;;;5052193;28;20174;-75
2023/05/18 05:13:46;;;;;;;7.17;6.40;;;9.30;99.90;;;;;;5051086;28;20167;-74
2023/05/18 05:16:11;;;;;;;8.57;6.63;;;9.40;99.90;;;;;;5052430;28;20458;-75
2023/05/18 05:18:37;;;;;;;7.80;7.00;;;9.40;99.90;;;;;;5049146;28;21354;-75
2023/05/18 05:21:03;;;;;;;8.03;7.23;;;9.50;99.90;;;;;;5031439;28;20214;-75
2023/05/18 05:23:29;;;;;;;7.83;7.00;;;9.50;99.90;;;;;;5032196;28;20183;-75
2023/05/18 05:25:55;;;;;;;7.10;6.50;;;9.50;99.90;;;;;;5035971;28;20917;-75
2023/05/18 05:28:20;;;;;;;13.33;8.30;;;9.60;99.90;;;;;;5046778;28;21001;-73
2023/05/18 05:30:46;;;;;;;8.70;7.80;;;9.70;99.90;;;;;;5035831;28;20176;-73
2023/05/18 05:33:12;;;;;;;8.67;7.87;;;9.60;99.90;;;;;;5050142;28;20230;-74
2023/05/18 05:35:38;;;;;;;8.43;7.63;;;9.50;99.90;;;;;;5025315;28;20277;-74
2023/05/18 05:38:04;;;;;;;10.03;9.03;;;9.40;99.90;;;;;;5035760;28;20311;-74
2023/05/18 05:40:30;;;;;;;12.30;8.03;;;9.20;99.90;;;;;;5037177;28;20266;-74
2023/05/18 05:42:55;;;;;;;11.37;8.60;;;9.10;99.90;;;;;;5052656;28;20967;-73
2023/05/18 05:45:22;;;;;;;9.80;8.37;;;9.10;99.90;;;;;;5056168;28;20253;-73
2023/05/18 05:47:49;;;;;;;8.80;8.00;;;8.90;99.90;;;;;;5037322;28;20272;-74
2023/05/18 05:50:14;;;;;;;9.70;8.50;;;9.00;99.90;;;;;;5055955;28;20398;-74
2023/05/18 05:52:40;;;;;;;10.77;8.20;;;9.10;99.90;;;;;;5051166;28;20478;-74
2023/05/18 05:55:06;;;;;;;10.03;7.93;;;9.20;99.90;;;;;;5053901;28;20431;-73
2023/05/18 05:57:32;;;;;;;9.57;8.57;;;9.30;99.90;;;;;;5054656;28;20184;-74
2023/05/18 05:59:57;;;;;;;8.40;7.53;;;9.30;99.90;;;;;;5054507;28;20459;-73
2023/05/18 06:02:23;;;;;;;8.87;7.97;;;9.30;99.90;;;;;;5055514;28;20171;-74
2023/05/18 06:04:49;;;;;;;9.50;7.57;;;9.20;99.90;;;;;;5052922;28;20217;-73
2023/05/18 06:07:15;;;;;;;12.93;8.70;;;9.30;99.90;;;;;;5053640;28;20529;-74
2023/05/18 06:09:40;;;;;;;17.00;10.57;;;9.40;99.90;;;;;;5037874;28;20581;-74
2023/05/18 06:12:07;;;;;;;10.53;7.80;;;9.60;99.90;;;;;;5053647;28;20179;-75
2023/05/18 06:14:32;;;;;;;9.73;7.20;;;9.80;99.90;;;;;;5036051;28;20215;-73
2023/05/18 06:16:58;;;;;;;10.30;7.83;;;9.90;99.90;;;;;;5054121;28;20409;-73
2023/05/18 06:19:24;;;;;;;9.10;8.13;;;10.00;99.90;;;;;;5055350;28;20204;-74
2023/05/18 06:21:51;;;;;;;9.43;8.43;;;10.10;99.90;;;;;;5037312;28;20522;-74
2023/05/18 06:24:17;;;;;;;11.67;9.50;;;10.20;99.90;;;;;;5037414;28;20429;-73
2023/05/18 06:26:43;;;;;;;7.63;7.03;;;10.10;99.90;;;;;;5033754;28;20178;-74
2023/05/18 06:29:10;;;;;;;8.80;7.43;;;10.10;99.90;;;;;;5050281;28;20174;-75
2023/05/18 06:31:35;;;;;;;9.53;7.77;;;10.20;99.90;;;;;;5047569;28;20428;-74
2023/05/18 06:34:01;;;;;;;8.87;7.70;;;10.30;99.90;;;;;;5049610;28;20189;-74
2023/05/18 06:36:27;;;;;;;8.10;7.30;;;10.50;99.90;;;;;;5051344;28;20555;-74
2023/05/18 06:38:55;;;;;;;8.87;8.00;;;10.60;99.90;;;;;;5040035;28;20216;-74
2023/05/18 06:41:21;;;;;;;14.40;9.67;;;10.80;99.90;;;;;;5016975;28;20518;-75
2023/05/18 06:43:47;;;;;;;9.33;6.93;;;10.90;99.90;;;;;;5033867;28;20211;-74
2023/05/18 06:46:23;;;;;;;8.40;7.60;;;10.90;99.90;;;;;;5044631;28;20648;-74
2023/05/18 06:48:48;;;;;;;12.93;7.47;;;11.00;99.90;;;;;;5049791;28;20177;-74
2023/05/18 06:51:15;;;;;;;7.50;6.70;;;11.10;99.90;;;;;;5053882;28;20514;-74
2023/05/18 06:53:41;;;;;;;10.83;7.10;;;11.20;99.90;;;;;;5048971;28;20255;-74
2023/05/18 06:56:07;;;;;;;13.57;7.20;;;11.30;99.90;;;;;;5044595;28;20466;-74
2023/05/18 06:58:33;;;;;;;9.73;7.97;;;11.10;99.90;;;;;;5054281;28;20878;-75
2023/05/18 07:01:01;;;;;;;8.63;7.37;;;11.20;99.90;;;;;;5054587;28;20457;-75
2023/05/18 07:03:27;;;;;;;7.90;6.70;;;11.40;99.90;;;;;;5054774;28;20462;-75
2023/05/18 07:05:53;;;;;;;10.13;8.00;;;11.50;99.90;;;;;;5041989;28;20900;-75
2023/05/18 07:08:19;;;;;;;7.80;6.30;;;11.60;99.90;;;;;;5019776;28;20174;-74
2023/05/18 07:10:45;;;;;;;6.27;5.67;;;11.80;99.60;;;;;;5040293;28;20480;-75
2023/05/18 07:13:11;;;;;;;9.40;7.80;;;11.90;99.60;;;;;;5048624;28;20524;-79
2023/05/18 07:15:37;;;;;;;7.03;6.43;;;12.10;99.60;;;;;;5045616;28;20529;-75
2023/05/18 07:18:03;;;;;;;7.70;6.37;;;12.30;99.90;;;;;;5051288;28;20444;-76
2023/05/18 07:20:28;;;;;;;7.27;6.57;;;12.40;99.60;;;;;;5043009;28;20762;-81
2023/05/18 07:22:54;;;;;;;9.77;7.90;;;12.80;99.90;;;;;;5035131;28;20182;-80
2023/05/18 07:25:22;;;;;;;62.57;35.40;;;12.90;99.90;;;;;;5054254;28;20627;-81
2023/05/18 07:27:48;;;;;;;179.73;111.20;;;13.30;99.80;;;;;;5054686;28;20503;-81
2023/05/18 07:30:13;;;;;;;61.20;42.10;;;13.60;98.10;;;;;;5054251;28;20419;-79
2023/05/18 07:32:39;;;;;;;9.97;7.43;;;14.00;99.90;;;;;;5053971;28;20404;-81
2023/05/18 07:35:05;;;;;;;10.40;7.30;;;14.20;96.00;;;;;;5053611;28;20161;-81
2023/05/18 07:37:31;;;;;;;12.00;6.80;;;14.50;97.70;;;;;;5039321;28;20176;-81
2023/05/18 07:39:57;;;;;;;10.00;8.23;;;14.80;95.00;;;;;;5016293;28;20465;-81
2023/05/18 07:42:23;;;;;;;8.10;7.30;;;14.90;94.50;;;;;;5034066;28;20191;-81
2023/05/18 07:44:49;;;;;;;188.47;118.43;;;15.00;95.30;;;;;;5036643;28;20197;-81
2023/05/18 07:47:15;;;;;;;42.70;30.43;;;15.10;92.50;;;;;;5054464;28;20168;-81
2023/05/18 07:49:41;;;;;;;12.80;10.70;;;15.40;94.40;;;;;;5053856;28;20870;-80
2023/05/18 07:52:07;;;;;;;10.83;8.33;;;15.50;93.90;;;;;;5053219;28;20290;-80
2023/05/18 07:54:33;;;;;;;8.20;7.23;;;15.60;92.90;;;;;;5053785;28;20419;-80
2023/05/18 07:56:59;;;;;;;8.50;5.47;;;15.70;89.10;;;;;;5040083;28;20223;-80
2023/05/18 07:59:25;;;;;;;10.23;6.50;;;15.50;90.50;;;;;;5033626;28;20455;-81
2023/05/18 08:01:51;;;;;;;15.27;10.20;;;15.00;86.90;;;;;;5033261;28;20169;-80
2023/05/18 08:04:18;;;;;;;5.67;5.17;;;15.20;93.10;;;;;;5033280;28;20196;-85
2023/05/18 08:06:43;;;;;;;8.93;7.60;;;15.50;91.30;;;;;;5033206;28;20428;-80
2023/05/18 08:09:09;;;;;;;6.80;6.20;;;15.60;91.30;;;;;;5032793;28;20192;-80
2023/05/18 08:11:35;;;;;;;7.17;6.47;;;15.80;90.70;;;;;;5015823;28;20201;-81
2023/05/18 08:14:01;;;;;;;10.70;7.90;;;15.90;92.60;;;;;;5044243;28;20571;-80
2023/05/18 08:16:27;;;;;;;7.17;6.03;;;16.20;93.30;;;;;;5042355;28;20439;-83
2023/05/18 08:18:53;;;;;;;47.67;31.23;;;16.40;89.60;;;;;;5047361;28;20247;-81
2023/05/18 08:21:18;;;;;;;57.78;38.15;;;16.60;94.10;;;;;;5043579;28;20512;-81
2023/05/18 08:23:45;;;;;;;7.03;5.97;;;16.70;90.30;;;;;;5041195;28;20170;-80
2023/05/18 08:26:11;;;;;;;11.37;7.40;;;17.00;92.30;;;;;;5047275;28;20213;-81
2023/05/18 08:28:37;;;;;;;6.57;5.50;;;17.10;91.30;;;;;;5047837;28;20443;-81
2023/05/18 08:31:03;;;;;;;6.93;5.77;;;17.10;84.20;;;;;;5047536;28;20439;-80
2023/05/18 08:33:31;;;;;;;8.80;6.93;;;17.20;83.40;;;;;;5011688;28;20193;-80
2023/05/18 08:35:56;;;;;;;6.23;5.73;;;17.30;81.20;;;;;;5051580;28;20170;-80
2023/05/18 08:38:22;;;;;;;9.60;7.03;;;17.40;89.30;;;;;;5028784;28;20470;-80
2023/05/18 08:41:01;;;;;;;6.93;5.03;;;17.70;90.60;;;;;;5052209;28;20182;-80
2023/05/18 08:43:32;;;;;;;5.93;5.40;;;17.80;81.10;;;;;;5034959;28;20877;-80
2023/05/18 08:46:10;;;;;;;7.43;5.27;;;17.80;87.80;;;;;;5051922;28;20798;-80
2023/05/18 08:48:36;;;;;;;6.17;5.57;;;17.80;82.70;;;;;;5033368;28;21032;-80
2023/05/18 08:51:04;;;;;;;6.57;5.97;;;17.90;83.20;;;;;;5040603;28;20463;-81
2023/05/18 08:53:31;;;;;;;11.17;8.00;;;18.00;83.20;;;;;;5023789;28;20511;-80
2023/05/18 08:55:59;;;;;;;9.07;7.83;;;18.10;89.40;;;;;;5039461;28;20421;-80
2023/05/18 08:58:33;;;;;;;11.50;9.33;;;18.40;88.90;;;;;;5014706;28;20449;-80
2023/05/18 09:00:59;;;;;;;7.50;6.73;;;18.50;87.80;;;;;;5033994;28;20409;-80
2023/05/18 09:03:25;;;;;;;9.93;8.13;;;18.70;84.70;;;;;;5032329;28;20409;-80
2023/05/18 09:05:51;;;;;;;7.73;7.00;;;18.80;81.90;;;;;;5032385;28;20420;-80
2023/05/18 09:08:18;;;;;;;8.83;7.63;;;18.80;81.30;;;;;;5039249;28;20197;-80
2023/05/18 09:10:46;;;;;;;9.07;8.23;;;18.90;85.00;;;;;;5050613;28;20416;-81
2023/05/18 09:13:13;;;;;;;8.83;7.90;;;18.90;85.30;;;;;;5048451;28;20411;-81
2023/05/18 09:15:39;;;;;;;8.00;5.93;;;19.00;85.10;;;;;;5031794;28;20518;-81
2023/05/18 09:18:05;;;;;;;8.80;7.90;;;19.00;81.80;;;;;;5049139;28;20511;-81
2023/05/18 09:20:31;;;;;;;6.63;5.93;;;19.00;82.50;;;;;;5043327;28;20178;-80
2023/05/18 09:22:58;;;;;;;9.73;8.10;;;19.10;75.80;;;;;;5036421;28;20192;-80
2023/05/18 09:25:26;;;;;;;10.50;9.50;;;19.10;85.00;;;;;;5052190;28;20427;-80
2023/05/18 09:27:52;;;;;;;7.83;7.07;;;19.10;83.60;;;;;;5051955;28;20505;-80
2023/05/18 09:30:18;;;;;;;9.07;5.70;;;19.10;79.80;;;;;;5046448;28;20908;-80
2023/05/18 09:32:46;;;;;;;9.90;7.50;;;19.10;80.00;;;;;;5050199;28;20185;-79
2023/05/18 09:35:12;;;;;;;98.70;67.50;;;19.20;84.30;;;;;;5052188;28;20488;-80
2023/05/18 09:37:41;;;;;;;38.97;29.93;;;19.40;79.70;;;;;;5050643;28;20408;-81
2023/05/18 09:40:07;;;;;;;6.63;6.00;;;19.40;75.30;;;;;;5030928;28;20941;-80
2023/05/18 09:42:37;;;;;;;6.83;6.30;;;19.40;72.90;;;;;;5039354;28;20459;-80
2023/05/18 09:45:22;;;;;;;7.50;6.20;;;19.50;72.60;;;;;;5048451;28;20485;-80
2023/05/18 09:47:49;;;;;;;6.37;5.77;;;19.50;77.50;;;;;;5048881;28;20426;-81
2023/05/18 09:50:19;;;;;;;9.47;6.37;;;19.60;79.30;;;;;;5043628;28;21087;-81
2023/05/18 09:52:48;;;;;;;9.20;7.83;;;19.60;77.90;;;;;;5038585;28;20959;-81
2023/05/18 09:55:18;;;;;;;10.20;8.00;;;19.70;78.30;;;;;;5043602;28;20447;-81
2023/05/18 09:57:49;;;;;;;7.40;6.70;;;19.70;78.30;;;;;;5047543;28;20436;-80
2023/05/18 10:00:17;;;;;;;6.10;5.30;;;19.80;74.80;;;;;;5031365;28;20757;-80
2023/05/18 10:02:47;;;;;;;9.57;7.30;;;19.90;76.00;;;;;;5014182;28;20908;-80
2023/05/18 10:05:32;;;;;;;7.73;5.80;;;19.90;77.80;;;;;;5030840;28;20397;-81
2023/05/18 10:07:59;;;;;;;6.40;5.70;;;20.00;73.90;;;;;;5016250;28;20742;-81
2023/05/18 10:10:28;;;;;;;6.73;6.13;;;20.00;78.80;;;;;;5035205;28;20425;-81
2023/05/18 10:12:57;;;;;;;6.50;5.87;;;20.00;78.10;;;;;;5025739;28;20424;-81
2023/05/18 10:15:25;;;;;;;5.87;5.37;;;20.00;76.80;;;;;;5030742;28;20442;-81
2023/05/18 10:17:56;;;;;;;5.63;4.90;;;20.10;77.30;;;;;;5051582;28;20433;-81
2023/05/18 10:20:23;;;;;;;7.00;6.30;;;20.20;73.80;;;;;;5039989;28;20460;-80
2023/05/18 10:22:49;;;;;;;6.37;5.83;;;20.20;75.90;;;;;;5042081;28;20440;-80
2023/05/18 10:25:18;;;;;;;6.20;5.27;;;20.30;71.90;;;;;;5055928;28;20415;-79
2023/05/18 10:27:47;;;;;;;6.47;5.87;;;20.40;77.00;;;;;;5055212;28;20755;-80
2023/05/18 10:30:14;;;;;;;15.40;10.77;;;20.50;74.00;;;;;;5040338;28;20421;-79
2023/05/18 10:32:42;;;;;;;52.97;45.13;;;20.50;74.00;;;;;;5036327;28;20413;-79
2023/05/18 10:35:09;;;;;;;19.97;11.43;;;20.60;75.90;;;;;;5035182;28;20402;-79
2023/05/18 10:37:38;;;;;;;21.03;18.07;;;20.60;77.00;;;;;;5043792;28;20412;-80
2023/05/18 10:40:08;;;;;;;22.13;18.03;;;20.70;74.00;;;;;;5054679;28;20816;-79
2023/05/18 10:42:35;;;;;;;10.93;8.13;;;20.70;68.60;;;;;;5055428;28;20478;-83
2023/05/18 10:45:02;;;;;;;6.50;5.90;;;20.70;74.40;;;;;;5054226;28;20184;-79
2023/05/18 10:47:28;;;;;;;6.90;6.40;;;20.70;70.70;;;;;;5033431;28;20495;-82
2023/05/18 10:49:55;;;;;;;6.87;6.20;;;20.80;74.80;;;;;;5052013;28;20943;-80
2023/05/18 10:52:23;;;;;;;9.03;6.50;;;20.80;76.30;;;;;;5051849;28;20612;-80
2023/05/18 10:54:48;;;;;;;6.53;6.03;;;20.80;73.20;;;;;;5053470;28;20432;-81
2023/05/18 10:57:18;;;;;;;9.67;5.80;;;20.80;74.00;;;;;;5049485;28;20439;-80
2023/05/18 10:59:45;;;;;;;8.00;6.87;;;20.90;69.40;;;;;;5052964;28;20206;-80
2023/05/18 11:02:15;;;;;;;6.83;6.13;;;20.80;70.60;;;;;;5053649;28;20495;-79
2023/05/18 11:04:41;;;;;;;7.10;6.40;;;20.80;72.30;;;;;;5029970;28;20438;-80
2023/05/18 11:07:13;;;;;;;6.60;5.93;;;20.50;68.10;;;;;;5054080;28;20780;-80
2023/05/18 11:09:42;;;;;;;6.03;5.30;;;20.20;67.40;;;;;;5054735;28;20400;-80
2023/05/18 11:12:13;;;;;;;7.87;5.70;;;20.30;77.70;;;;;;5044279;28;20424;-80
2023/05/18 11:14:48;;;;;;;6.27;5.70;;;20.50;76.60;;;;;;5052160;28;20455;-79
2023/05/18 11:17:17;;;;;;;6.07;5.47;;;20.60;71.60;;;;;;5053599;28;20953;-80
2023/05/18 11:20:03;;;;;;;6.40;5.90;;;20.80;74.80;;;;;;5051961;28;20799;-80
2023/05/18 11:23:00;;;;;;;8.47;6.40;;;20.90;69.10;;;;;;5051713;28;20432;-79
2023/05/18 11:25:26;;;;;;;8.43;5.73;;;21.10;67.90;;;;;;5053588;28;20511;-81
2023/05/18 11:28:01;;;;;;;6.00;5.50;;;19.80;64.30;;;;;;5054167;28;20508;-81
2023/05/18 11:30:32;;;;;;;5.73;5.23;;;19.90;70.10;;;;;;5052035;28;20177;-81
2023/05/18 11:33:12;;;;;;;6.50;5.13;;;20.10;68.50;;;;;;5053809;28;20416;-81
2023/05/18 11:35:56;;;;;;;6.17;5.20;;;20.20;67.10;;;;;;5049611;28;20759;-81
2023/05/18 11:38:26;;;;;;;6.83;6.00;;;20.40;74.50;;;;;;5049505;28;20534;-80
2023/05/18 11:40:52;;;;;;;5.73;5.23;;;20.40;66.40;;;;;;5052508;28;20458;-82
2023/05/18 11:43:22;;;;;;;5.33;4.83;;;20.40;66.10;;;;;;5052808;28;20404;-81
2023/05/18 11:45:53;;;;;;;35.20;28.20;;;20.50;68.60;;;;;;5054100;28;20182;-76
2023/05/18 11:48:31;;;;;;;130.83;90.23;;;20.60;67.80;;;;;;5051687;28;20428;-76
2023/05/18 11:50:56;;;;;;;144.67;121.00;;;20.50;68.90;;;;;;5052363;28;20783;-76
2023/05/18 11:53:28;;;;;;;7.72;6.30;;;20.50;68.90;;;;;;5052600;28;20446;-77
2023/05/18 11:55:55;;;;;;;6.33;5.47;;;20.60;64.90;;;;;;5033480;28;20589;-77
2023/05/18 11:58:24;;;;;;;6.23;5.53;;;20.70;65.90;;;;;;5050270;28;20789;-75
2023/05/18 12:00:52;;;;;;;5.77;5.20;;;20.70;67.60;;;;;;5051782;28;20927;-75
2023/05/18 12:03:23;;;;;;;5.77;5.17;;;20.70;67.30;;;;;;5052223;28;20514;-76
2023/05/18 12:05:49;;;;;;;5.87;5.37;;;20.50;64.00;;;;;;5053667;28;20397;-76
2023/05/18 12:08:25;;;;;;;7.77;5.70;;;20.30;65.60;;;;;;5035107;28;20912;-76
2023/05/18 12:10:52;;;;;;;8.00;5.43;;;20.20;64.30;;;;;;5051295;28;20950;-78
2023/05/18 12:13:18;;;;;;;6.07;5.40;;;20.20;68.40;;;;;;5048985;28;20429;-76
2023/05/18 12:15:44;;;;;;;6.50;5.20;;;20.40;69.20;;;;;;5037615;28;20425;-77
2023/05/18 12:18:10;;;;;;;11.83;6.03;;;20.10;64.40;;;;;;5041405;28;20463;-76
2023/05/18 12:20:39;;;;;;;6.93;5.83;;;20.00;65.00;;;;;;5048112;28;20475;-77
2023/05/18 12:23:05;;;;;;;6.70;6.10;;;20.00;68.30;;;;;;5041808;28;20528;-76
2023/05/18 12:25:31;;;;;;;5.77;5.33;;;20.10;69.30;;;;;;5053377;28;20515;-76
2023/05/18 12:27:57;;;;;;;6.30;5.80;;;20.10;68.20;;;;;;5048666;28;20198;-77
2023/05/18 12:30:33;;;;;;;5.83;5.33;;;20.10;69.20;;;;;;5032662;28;20625;-75
2023/05/18 12:33:01;;;;;;;5.57;5.07;;;20.10;67.20;;;;;;5032965;28;20837;-77
2023/05/18 12:35:28;;;;;;;5.37;4.90;;;20.00;67.10;;;;;;5038044;28;20416;-78
2023/05/18 12:38:00;;;;;;;6.30;5.70;;;20.00;69.20;;;;;;5051399;28;20420;-77
2023/05/18 12:40:26;;;;;;;5.30;4.77;;;19.80;65.70;;;;;;5052289;28;20549;-77
2023/05/18 12:42:59;;;;;;;6.40;4.83;;;19.90;68.70;;;;;;5051338;28;20451;-79
2023/05/18 12:45:31;;;;;;;5.73;5.13;;;20.10;70.60;;;;;;5052058;28;20393;-77
2023/05/18 12:48:07;;;;;;;6.50;5.90;;;20.10;66.80;;;;;;5052597;28;20416;-76